Aviation Digital Data Service (ADDS)

Output produced by METARs form (1825 UTC 22 November 2017)
found at http://www.aviationweather.gov/adds/metars/
 
EEEI 221650Z 13008KT 100V160 9999 OVC005 M01/M01 Q1015 R06/290095 NOSIG
TAF EEEI 221730Z 2218/2318 15008KT 9999 BKN005 OVC015 
     BECMG 2301/2303 16014KT 
     TEMPO 2305/2310 1500 SN BLSN VV001 
     TEMPO 2306/2313 17017G27KT 
     BECMG 2313/2315 2000 BR VV002
       
EEKA 221550Z 13010KT 9999 OVC002 00/00 Q1014
TAF EEKA 221300Z 2214/2220 15008KT 2000 BR SCT003 
     TEMPO 2214/2217 0500 FZFG VV002 
     BECMG 2217/2219 9999 SCT006 BKN020
       
EEKE 221750Z AUTO 17014KT 9999NDV BKN010 OVC013 01/00 Q1013
TAF EEKE 221500Z 2216/2222 15012KT 9999 BKN015 
     TEMPO 2216/2218 2000 BR BKN004 
     BECMG 2218/2220 16016G26KT
       
EEPU 221350Z VRB02KT 9999 BKN012 M00/M00 Q1014
EETN 221820Z 15006KT 1600 0900E R08/P2000N -SN BR BCFG OVC001 M03/M04 Q1015 R08/310195 TEMPO FZFG
TAF EETN 221720Z 2218/2318 14010KT 6000 BKN004 
     TEMPO 2218/2224 0600 FZFG VV002 
     PROB40 
     TEMPO 2218/2224 -FZDZ SN 
     BECMG 2300/2302 SCT010 BKN025 
     BECMG 2305/2307 16015G25KT 5000 SN 
     TEMPO 2308/2314 16018G30KT 1200 +SN BLSN BKN004 OVC015
       
EETU 221750Z 08005KT 0900 FZFG VV001 M02/M02 Q1016
TAF EETU 221700Z 2218/2224 09007KT 0600 FZFG VV001 
     TEMPO 2218/2221 3000 BR OVC003 
     BECMG 2221/2223 5000 BR BKN004 OVC010